Time;durP1;ratioP1;P1;durP2;ratioP2;P2;SDS_P1;SDS_P2;PMS_P1;PMS_P2;Temp;Humidity;BMP_temperature;BMP_pressure;BME280_temperature;BME280_humidity;BME280_pressure;Samples;Min_cycle;Max_cycle;Signal;HPM_P1;HPM_P2
2022/01/24 00:00:17;;;;;;;11.05;8.85;;;3.70;99.90;;;;;;5009168;28;20034;-68
2022/01/24 00:02:44;;;;;;;9.43;8.45;;;3.70;99.90;;;;;;5008696;28;20041;-68
2022/01/24 00:05:13;;;;;;;8.98;8.18;;;3.70;99.90;;;;;;5008216;28;20110;-67
2022/01/24 00:07:39;;;;;;;8.10;7.40;;;3.80;99.90;;;;;;5009441;28;20029;-68
2022/01/24 00:10:09;;;;;;;8.50;7.70;;;3.80;99.90;;;;;;5009511;28;20033;-68
2022/01/24 00:28:13;;;;;;;8.88;8.00;;;3.70;99.90;;;;;;5010309;28;20053;-68
2022/01/24 00:30:45;;;;;;;9.60;8.77;;;3.70;99.90;;;;;;5009416;28;20167;-68
2022/01/24 00:33:11;;;;;;;9.43;8.52;;;3.70;99.90;;;;;;5009912;28;20026;-68
2022/01/24 00:35:37;;;;;;;8.50;7.70;;;3.60;99.90;;;;;;5006046;28;20080;-68
2022/01/24 00:38:02;;;;;;;9.40;8.50;;;3.60;99.90;;;;;;5010004;28;20030;-68
2022/01/24 00:40:33;;;;;;;9.18;8.27;;;3.60;99.90;;;;;;5010205;28;20044;-68
2022/01/24 00:43:00;;;;;;;10.07;8.93;;;3.60;99.90;;;;;;5009030;28;20030;-67
2022/01/24 00:56:02;;;;;;;9.23;8.15;;;3.60;99.90;;;;;;5005924;28;20041;-68
2022/01/24 00:58:27;;;;;;;9.23;8.32;;;3.60;99.90;;;;;;5007465;28;20034;-68
2022/01/24 01:00:53;;;;;;;9.70;8.35;;;3.50;99.90;;;;;;5007644;28;20037;-68
2022/01/24 01:03:19;;;;;;;9.75;8.75;;;3.60;99.90;;;;;;5008503;28;20029;-68
2022/01/24 01:20:00;;;;;;;10.27;9.32;;;3.50;99.90;;;;;;5006704;28;20092;-68
2022/01/24 01:22:25;;;;;;;12.65;11.43;;;3.50;99.90;;;;;;5006855;28;20026;-68
2022/01/24 01:25:11;;;;;;;10.57;9.55;;;3.50;99.90;;;;;;5006607;28;20022;-68
2022/01/24 01:27:41;;;;;;;10.82;9.73;;;3.50;99.90;;;;;;5008895;28;20032;-68
2022/01/24 01:30:15;;;;;;;11.37;9.10;;;3.60;99.90;;;;;;5007259;28;20125;-68
2022/01/24 01:32:59;;;;;;;10.85;9.75;;;3.60;99.90;;;;;;5007184;28;20273;-68
2022/01/24 01:54:22;;;;;;;10.48;9.23;;;3.60;99.90;;;;;;5009039;28;20401;-68
2022/01/24 01:56:47;;;;;;;11.02;9.55;;;3.60;99.90;;;;;;5006266;28;20397;-68
2022/01/24 01:59:13;;;;;;;10.48;9.05;;;3.60;99.90;;;;;;5008637;28;20033;-67
2022/01/24 02:01:39;;;;;;;14.13;11.10;;;3.60;99.90;;;;;;5004884;28;20046;-67
2022/01/24 02:04:05;;;;;;;11.80;10.60;;;3.60;99.90;;;;;;5008304;28;20034;-68
2022/01/24 02:06:31;;;;;;;10.73;9.75;;;3.60;99.90;;;;;;5006005;28;20029;-68
2022/01/24 02:08:59;;;;;;;12.43;10.63;;;3.60;99.90;;;;;;5007769;28;20477;-68
2022/01/24 02:11:25;;;;;;;10.80;9.80;;;3.60;99.90;;;;;;5007277;28;20104;-67
2022/01/24 02:13:51;;;;;;;10.82;9.73;;;3.60;99.90;;;;;;5007201;28;20152;-68
2022/01/24 02:16:46;;;;;;;10.80;9.90;;;3.70;99.90;;;;;;5004835;28;20084;-68
2022/01/24 02:24:05;;;;;;;10.57;9.52;;;3.70;99.90;;;;;;5007850;28;20018;-67
2022/01/24 02:26:32;;;;;;;9.35;8.45;;;3.70;99.90;;;;;;5005217;28;20180;-68
2022/01/24 02:29:25;;;;;;;10.27;9.27;;;3.70;99.90;;;;;;5008116;28;20077;-68
2022/01/24 02:31:49;;;;;;;11.40;10.25;;;3.70;99.90;;;;;;5006686;28;20026;-68
2022/01/24 02:34:33;;;;;;;10.52;9.57;;;3.60;99.90;;;;;;5005877;28;20034;-68
2022/01/24 02:37:10;;;;;;;10.30;9.32;;;3.70;99.90;;;;;;5007404;28;20525;-68
2022/01/24 02:51:11;;;;;;;9.75;8.68;;;3.60;99.90;;;;;;5010152;28;20049;-68
2022/01/24 02:53:35;;;;;;;11.25;9.30;;;3.60;99.90;;;;;;5011160;28;20085;-68
2022/01/24 02:56:02;;;;;;;9.93;9.05;;;3.60;99.90;;;;;;5010168;28;20077;-68
2022/01/24 02:58:28;;;;;;;9.68;8.77;;;3.60;99.90;;;;;;5011726;28;20034;-68
2022/01/24 03:00:55;;;;;;;12.23;11.02;;;3.60;99.90;;;;;;5008797;28;20048;-68
2022/01/24 03:03:22;;;;;;;12.73;11.18;;;3.60;99.90;;;;;;5011029;28;20065;-69
2022/01/24 03:05:49;;;;;;;11.55;10.55;;;3.60;99.90;;;;;;5011896;28;20121;-68
2022/01/24 03:08:15;;;;;;;10.40;9.40;;;3.50;99.90;;;;;;5009619;28;20129;-68
2022/01/24 03:10:46;;;;;;;10.48;9.48;;;3.60;99.90;;;;;;5010069;28;20026;-68
2022/01/24 03:13:30;;;;;;;10.65;9.65;;;3.60;99.90;;;;;;5009336;28;20084;-68
2022/01/24 03:15:58;;;;;;;10.57;9.57;;;3.60;99.90;;;;;;5011124;28;20041;-68
2022/01/24 03:18:24;;;;;;;10.10;9.10;;;3.70;99.90;;;;;;5009914;28;20032;-68
2022/01/24 03:20:51;;;;;;;11.82;10.73;;;3.60;99.90;;;;;;5010356;28;20049;-68
2022/01/24 03:23:21;;;;;;;11.57;10.52;;;3.60;99.90;;;;;;5007540;28;20058;-67
2022/01/24 03:25:47;;;;;;;11.98;10.70;;;3.60;99.90;;;;;;5002804;28;20087;-68
2022/01/24 03:28:13;;;;;;;13.15;11.35;;;3.60;99.90;;;;;;5010266;28;20549;-68
2022/01/24 03:30:40;;;;;;;10.98;9.77;;;3.60;99.90;;;;;;5007849;28;20022;-68
2022/01/24 03:33:06;;;;;;;11.93;10.25;;;3.60;99.90;;;;;;5011276;28;20505;-68
2022/01/24 03:35:33;;;;;;;10.95;9.85;;;3.60;99.90;;;;;;5007611;28;20037;-68
2022/01/24 03:37:59;;;;;;;10.98;9.93;;;3.60;99.90;;;;;;5007175;28;20064;-68
2022/01/24 03:40:25;;;;;;;10.20;9.27;;;3.60;99.90;;;;;;5008216;28;20042;-68
2022/01/24 03:42:50;;;;;;;11.82;10.73;;;3.70;99.90;;;;;;5008835;28;20474;-68
2022/01/24 03:45:24;;;;;;;10.80;9.77;;;3.60;99.90;;;;;;5010466;28;20030;-67
2022/01/24 03:48:09;;;;;;;10.82;9.82;;;3.60;99.90;;;;;;5008942;28;20454;-68
2022/01/24 03:50:35;;;;;;;12.35;11.15;;;3.70;99.90;;;;;;5010839;28;20038;-68
2022/01/24 03:53:00;;;;;;;12.90;11.80;;;3.70;99.90;;;;;;5009853;28;20034;-68
2022/01/24 03:55:26;;;;;;;13.15;11.88;;;3.60;99.90;;;;;;5009395;28;20088;-68
2022/01/24 03:57:52;;;;;;;12.88;11.68;;;3.60;99.90;;;;;;5010142;28;20121;-68
2022/01/24 04:00:18;;;;;;;13.02;11.77;;;3.70;99.90;;;;;;5007454;28;20038;-68
2022/01/24 04:02:44;;;;;;;14.27;12.75;;;3.70;99.90;;;;;;5010626;28;20034;-68
2022/01/24 04:05:10;;;;;;;26.38;19.60;;;3.70;99.90;;;;;;5009392;28;20497;-68
2022/01/24 04:07:35;;;;;;;17.17;15.20;;;3.60;99.90;;;;;;5009300;28;20030;-68
2022/01/24 04:10:06;;;;;;;22.20;17.40;;;3.60;99.90;;;;;;5008830;28;20022;-68
2022/01/24 04:12:34;;;;;;;12.73;11.63;;;3.70;99.90;;;;;;5007450;28;20022;-68
2022/01/24 04:15:14;;;;;;;18.85;16.85;;;3.60;99.90;;;;;;5010643;28;20022;-67
2022/01/24 04:17:44;;;;;;;22.60;18.70;;;3.60;99.90;;;;;;5008577;28;20796;-68
2022/01/24 04:22:57;;;;;;;15.15;13.73;;;3.60;99.90;;;;;;5009250;28;20045;-67
2022/01/24 04:25:24;;;;;;;12.98;11.77;;;3.60;99.90;;;;;;5008826;28;20393;-68
2022/01/24 04:27:58;;;;;;;13.05;11.85;;;3.60;99.90;;;;;;5008655;28;20050;-68
2022/01/24 04:30:24;;;;;;;11.70;10.57;;;3.50;99.90;;;;;;5008598;28;20033;-68
2022/01/24 04:32:50;;;;;;;11.70;10.52;;;3.50;99.90;;;;;;5010249;28;20386;-68
2022/01/24 04:35:15;;;;;;;49.00;28.15;;;3.50;99.90;;;;;;5008418;28;20122;-68
2022/01/24 04:37:41;;;;;;;13.88;12.52;;;3.50;99.90;;;;;;5008688;28;20046;-68
2022/01/24 04:40:08;;;;;;;13.57;12.15;;;3.50;99.90;;;;;;5010433;28;20109;-68
2022/01/24 04:42:51;;;;;;;13.63;12.32;;;3.50;99.90;;;;;;5008863;28;20018;-68
2022/01/24 04:45:36;;;;;;;13.35;12.05;;;3.40;99.90;;;;;;5008653;28;20014;-68
2022/01/24 04:50:45;;;;;;;13.43;12.10;;;3.50;99.90;;;;;;5008464;28;20521;-67
2022/01/24 04:55:57;;;;;;;12.55;11.35;;;3.50;99.90;;;;;;4996997;28;20030;-67
2022/01/24 04:58:22;;;;;;;13.40;11.98;;;3.50;99.90;;;;;;5007591;28;20367;-68
2022/01/24 05:00:48;;;;;;;12.60;11.38;;;3.50;99.90;;;;;;5005559;28;20548;-68
2022/01/24 05:03:14;;;;;;;12.23;11.00;;;3.50;99.90;;;;;;5007840;28;20814;-68
2022/01/24 05:05:40;;;;;;;11.93;10.85;;;3.50;99.90;;;;;;5007454;28;20034;-68
2022/01/24 05:08:08;;;;;;;15.93;12.10;;;3.50;99.90;;;;;;5007320;28;20038;-67
2022/01/24 05:10:42;;;;;;;14.73;12.20;;;3.50;99.90;;;;;;5006908;28;20176;-67
2022/01/24 05:23:55;;;;;;;13.40;12.10;;;3.50;99.90;;;;;;5008128;28;20032;-68
2022/01/24 05:26:21;;;;;;;14.98;13.18;;;3.50;99.90;;;;;;5006791;28;20030;-68
2022/01/24 05:28:47;;;;;;;14.20;12.75;;;3.50;99.90;;;;;;5006863;28;20436;-68
2022/01/24 05:31:19;;;;;;;13.93;12.52;;;3.50;99.90;;;;;;5008689;28;20456;-67
2022/01/24 05:33:45;;;;;;;13.95;12.55;;;3.50;99.90;;;;;;5006930;28;21100;-68
2022/01/24 05:36:11;;;;;;;13.88;12.48;;;3.50;99.90;;;;;;5006863;28;20118;-68
2022/01/24 05:38:37;;;;;;;14.52;13.15;;;3.60;99.90;;;;;;5006776;28;20821;-68
2022/01/24 05:41:03;;;;;;;13.30;12.00;;;3.50;99.90;;;;;;5005009;28;20034;-68
2022/01/24 05:43:28;;;;;;;15.50;14.00;;;3.50;99.90;;;;;;5007479;28;20026;-68
2022/01/24 05:46:03;;;;;;;14.00;12.73;;;3.50;99.90;;;;;;5008260;28;20525;-68
2022/01/24 05:48:29;;;;;;;13.50;12.25;;;3.60;99.90;;;;;;5007350;28;20025;-68
2022/01/24 05:51:04;;;;;;;14.57;13.05;;;3.60;99.90;;;;;;5009835;28;20943;-68
2022/01/24 05:53:35;;;;;;;29.73;21.27;;;3.50;99.90;;;;;;5008023;28;20406;-67
2022/01/24 05:56:01;;;;;;;23.23;19.00;;;3.60;99.90;;;;;;5007605;28;20034;-68
2022/01/24 05:58:27;;;;;;;29.27;21.50;;;3.60;99.90;;;;;;5006541;28;20044;-68
2022/01/24 06:00:53;;;;;;;26.88;22.48;;;3.50;99.90;;;;;;5008245;28;20394;-68
2022/01/24 06:03:19;;;;;;;24.25;19.55;;;3.50;99.90;;;;;;5008146;28;20084;-68
2022/01/24 06:05:44;;;;;;;23.98;19.70;;;3.50;99.90;;;;;;5008753;28;20030;-68
2022/01/24 06:08:10;;;;;;;21.63;19.00;;;3.60;99.90;;;;;;5008564;28;20030;-68
2022/01/24 06:10:37;;;;;;;28.73;22.58;;;3.50;99.90;;;;;;5006662;28;20030;-68
2022/01/24 06:13:03;;;;;;;29.38;20.52;;;3.60;99.90;;;;;;5008577;28;20112;-68
2022/01/24 06:15:38;;;;;;;23.75;19.33;;;3.50;99.90;;;;;;5006212;28;20017;-68
2022/01/24 06:18:06;;;;;;;19.65;16.75;;;3.60;99.90;;;;;;5007013;28;20030;-68
2022/01/24 06:20:32;;;;;;;47.35;24.33;;;3.60;99.90;;;;;;5007127;28;20108;-68
2022/01/24 06:22:58;;;;;;;39.50;22.85;;;3.60;99.90;;;;;;5006609;28;20076;-67
2022/01/24 06:25:38;;;;;;;36.20;24.23;;;3.50;99.90;;;;;;5007863;28;20448;-68
2022/01/24 06:28:04;;;;;;;34.97;21.38;;;3.50;99.90;;;;;;5006066;28;20113;-68
2022/01/24 06:30:39;;;;;;;32.17;22.48;;;3.50;99.90;;;;;;5008212;28;20121;-68
2022/01/24 06:33:05;;;;;;;16.98;15.18;;;3.50;99.90;;;;;;5007061;28;20026;-68
2022/01/24 06:35:40;;;;;;;18.45;13.95;;;3.60;99.90;;;;;;5007610;28;20099;-68
2022/01/24 06:38:05;;;;;;;21.52;14.82;;;3.50;99.90;;;;;;5005364;28;20107;-68
2022/01/24 06:40:32;;;;;;;15.48;12.70;;;3.50;99.90;;;;;;5006530;28;20030;-68
2022/01/24 06:42:58;;;;;;;14.07;12.85;;;3.50;99.90;;;;;;5008413;28;20052;-68
2022/01/24 06:45:23;;;;;;;14.50;13.10;;;3.50;99.90;;;;;;5006904;28;20817;-68
2022/01/24 06:47:49;;;;;;;14.63;13.20;;;3.50;99.90;;;;;;5008404;28;20260;-67
2022/01/24 06:50:15;;;;;;;14.23;12.77;;;3.50;99.90;;;;;;5006092;28;20117;-67
2022/01/24 06:52:40;;;;;;;15.48;14.05;;;3.50;99.90;;;;;;5006988;28;20036;-67
2022/01/24 06:55:12;;;;;;;14.75;13.25;;;3.60;99.90;;;;;;5007205;28;20492;-67
2022/01/24 06:57:38;;;;;;;16.75;14.20;;;3.60;99.90;;;;;;5007097;28;20030;-67
2022/01/24 07:00:13;;;;;;;16.15;14.50;;;3.60;99.90;;;;;;5007833;28;20028;-68
2022/01/24 07:02:41;;;;;;;13.82;12.50;;;3.60;99.90;;;;;;5005547;28;20085;-68
2022/01/24 07:05:07;;;;;;;14.30;12.82;;;3.60;99.90;;;;;;5005134;28;20030;-68
2022/01/24 07:07:33;;;;;;;15.23;13.38;;;3.50;99.90;;;;;;5006026;28;20049;-68
2022/01/24 07:10:00;;;;;;;16.27;14.55;;;3.50;99.90;;;;;;5007268;28;20022;-68
2022/01/24 07:12:26;;;;;;;19.17;15.48;;;3.50;99.90;;;;;;5006498;28;20113;-68
2022/01/24 07:14:53;;;;;;;24.50;17.63;;;3.50;99.90;;;;;;5005765;28;20061;-68
2022/01/24 07:19:50;;;;;;;18.05;14.52;;;3.60;99.90;;;;;;5006744;28;20029;-68
2022/01/24 07:22:16;;;;;;;15.70;14.10;;;3.60;99.90;;;;;;5007635;28;20421;-68
2022/01/24 07:24:42;;;;;;;15.63;13.75;;;3.60;99.90;;;;;;5008960;28;20046;-68
2022/01/24 07:27:08;;;;;;;14.98;13.48;;;3.60;99.90;;;;;;5010977;28;20021;-68
2022/01/24 07:29:52;;;;;;;17.35;13.20;;;3.60;99.90;;;;;;5009170;28;20053;-68
2022/01/24 07:32:18;;;;;;;14.73;13.20;;;3.60;99.90;;;;;;5011236;28;20040;-68
2022/01/24 07:34:46;;;;;;;15.82;14.15;;;3.60;99.90;;;;;;5010180;28;20030;-68
2022/01/24 07:37:15;;;;;;;14.70;13.20;;;3.60;99.90;;;;;;5010618;28;20044;-68
2022/01/24 07:39:46;;;;;;;15.23;13.63;;;3.60;99.90;;;;;;5010312;28;20104;-67
2022/01/24 07:42:17;;;;;;;15.48;13.88;;;3.70;99.90;;;;;;5010777;28;20026;-67
2022/01/24 07:44:44;;;;;;;15.43;13.80;;;3.70;99.90;;;;;;5009340;28;20488;-67
2022/01/24 07:47:10;;;;;;;17.00;13.32;;;3.70;99.90;;;;;;5010642;28;20031;-67
2022/01/24 07:49:48;;;;;;;21.40;14.23;;;3.70;99.90;;;;;;5010358;28;20788;-67
2022/01/24 07:52:13;;;;;;;14.68;13.10;;;3.70;99.90;;;;;;5006418;28;20371;-68
2022/01/24 07:54:41;;;;;;;17.10;15.25;;;3.80;99.90;;;;;;5010033;28;20030;-68
2022/01/24 07:57:07;;;;;;;16.13;13.60;;;3.80;99.90;;;;;;5010316;28;20068;-68
2022/01/24 07:59:33;;;;;;;17.70;13.93;;;3.80;99.90;;;;;;5010313;28;20049;-67
2022/01/24 08:02:04;;;;;;;15.05;12.48;;;3.90;99.90;;;;;;5009793;28;20041;-68
2022/01/24 08:04:35;;;;;;;14.82;13.32;;;3.90;99.90;;;;;;5010097;28;20038;-67
2022/01/24 08:07:01;;;;;;;;;;;4.00;99.90;;;;;;5010670;28;20030;-68
2022/01/24 08:09:35;;;;;;;14.65;13.15;;;4.00;99.90;;;;;;5009535;28;19959;-68
2022/01/24 08:12:01;;;;;;;15.23;13.45;;;4.00;99.90;;;;;;5007768;28;20466;-68
2022/01/24 08:14:36;;;;;;;14.88;13.20;;;4.10;99.90;;;;;;5010251;28;20026;-67
2022/01/24 08:17:03;;;;;;;18.48;16.05;;;4.10;99.90;;;;;;5009418;28;20485;-68
2022/01/24 08:19:35;;;;;;;21.20;15.25;;;4.10;99.90;;;;;;5009222;28;20058;-68
2022/01/24 08:22:06;;;;;;;17.27;15.38;;;4.10;99.90;;;;;;5009415;28;20041;-67
2022/01/24 08:24:35;;;;;;;21.52;16.42;;;4.10;99.90;;;;;;5008946;28;20037;-68
2022/01/24 08:27:07;;;;;;;24.70;15.75;;;4.10;99.90;;;;;;5010556;28;20149;-68
2022/01/24 08:29:38;;;;;;;17.52;15.50;;;4.10;99.90;;;;;;5009507;28;20040;-67
2022/01/24 08:32:07;;;;;;;19.27;17.13;;;4.10;99.90;;;;;;5009638;28;20034;-67
2022/01/24 08:34:38;;;;;;;16.92;15.13;;;4.10;99.90;;;;;;5005736;28;20030;-68
2022/01/24 08:37:07;;;;;;;19.35;15.02;;;4.10;99.90;;;;;;5008346;28;20076;-67
2022/01/24 08:39:39;;;;;;;16.60;14.07;;;4.10;99.90;;;;;;5008683;28;20038;-68
2022/01/24 08:42:30;;;;;;;19.42;15.43;;;4.10;99.90;;;;;;5007652;28;20508;-68
2022/01/24 08:47:42;;;;;;;15.60;14.02;;;4.20;99.90;;;;;;5008205;28;20030;-68
2022/01/24 08:50:11;;;;;;;15.73;14.05;;;4.20;99.90;;;;;;5006533;28;20064;-68
2022/01/24 08:52:39;;;;;;;16.98;15.27;;;4.20;99.90;;;;;;5022328;28;20030;-68
2022/01/24 08:55:14;;;;;;;41.45;28.13;;;4.20;99.90;;;;;;5007346;28;20038;-66
2022/01/24 08:57:40;;;;;;;23.17;19.52;;;4.20;99.90;;;;;;5006887;28;20065;-68
2022/01/24 09:00:10;;;;;;;20.05;16.08;;;4.20;99.90;;;;;;5008251;28;20025;-68
2022/01/24 09:02:38;;;;;;;19.08;15.25;;;4.20;99.90;;;;;;5008412;28;20515;-68
2022/01/24 09:05:07;;;;;;;18.60;14.80;;;4.30;99.90;;;;;;5008091;28;20030;-68
2022/01/24 09:07:41;;;;;;;19.00;15.77;;;4.30;99.90;;;;;;5007745;28;20026;-68
2022/01/24 09:10:11;;;;;;;19.05;15.10;;;4.20;99.90;;;;;;5009168;28;20140;-68
2022/01/24 09:12:43;;;;;;;18.33;15.85;;;4.20;99.90;;;;;;5008971;28;20487;-68
2022/01/24 09:15:12;;;;;;;19.10;15.52;;;4.20;99.90;;;;;;5008098;28;20029;-67
2022/01/24 09:17:47;;;;;;;20.80;16.55;;;4.20;99.90;;;;;;5008441;28;20029;-68
2022/01/24 09:20:13;;;;;;;28.10;20.17;;;4.20;99.90;;;;;;5007296;28;20516;-68
2022/01/24 09:22:46;;;;;;;25.40;20.70;;;4.10;99.90;;;;;;5008848;28;20034;-67
2022/01/24 09:25:16;;;;;;;23.20;17.48;;;4.10;99.90;;;;;;5005892;28;20054;-67
2022/01/24 09:27:43;;;;;;;22.85;17.55;;;4.10;99.90;;;;;;5009353;28;20047;-68
2022/01/24 09:30:20;;;;;;;24.80;17.52;;;4.10;99.90;;;;;;5008436;28;20543;-68
2022/01/24 09:32:46;;;;;;;27.17;19.95;;;4.10;99.90;;;;;;5007836;28;20105;-67
2022/01/24 09:35:15;;;;;;;21.13;17.35;;;4.20;99.90;;;;;;5008524;28;20038;-67
2022/01/24 09:37:49;;;;;;;27.48;20.30;;;4.30;99.90;;;;;;5008485;28;20049;-68
2022/01/24 09:40:17;;;;;;;20.13;16.55;;;4.30;99.90;;;;;;5008313;28;20041;-67
2022/01/24 09:42:46;;;;;;;20.25;16.92;;;4.40;99.90;;;;;;5006932;28;20045;-68
2022/01/24 09:45:17;;;;;;;21.98;16.75;;;4.40;99.90;;;;;;5008338;28;20026;-68
2022/01/24 09:47:43;;;;;;;20.77;16.83;;;4.50;99.90;;;;;;5008291;28;20033;-68
2022/01/24 09:50:18;;;;;;;19.08;15.35;;;4.60;99.90;;;;;;5008101;28;20058;-68
2022/01/24 09:52:48;;;;;;;21.40;15.25;;;4.60;99.90;;;;;;5008018;28;20034;-68
2022/01/24 09:55:20;;;;;;;16.02;14.00;;;4.60;99.90;;;;;;5007731;28;20030;-69
2022/01/24 09:57:49;;;;;;;;;;;4.60;99.90;;;;;;5007386;28;20037;-66
2022/01/24 10:00:22;;;;;;;19.08;14.00;;;4.70;99.90;;;;;;5006716;28;19960;-68
2022/01/24 10:02:50;;;;;;;16.02;14.32;;;4.80;99.90;;;;;;5007801;28;20498;-68
2022/01/24 10:05:46;;;;;;;15.00;13.50;;;4.90;99.90;;;;;;5006086;28;20501;-68
2022/01/24 10:08:19;;;;;;;15.48;13.88;;;5.00;99.90;;;;;;5007858;28;20057;-68
2022/01/24 10:10:51;;;;;;;16.45;14.02;;;5.00;99.90;;;;;;5006483;28;20121;-68
2022/01/24 10:19:04;;;;;;;14.45;12.98;;;5.20;99.90;;;;;;5008531;28;20033;-68
2022/01/24 10:21:35;;;;;;;13.52;12.27;;;5.20;99.90;;;;;;5006663;28;20026;-68
2022/01/24 10:24:01;;;;;;;13.27;12.02;;;5.20;99.90;;;;;;5007456;28;20041;-68
2022/01/24 10:26:36;;;;;;;12.90;11.68;;;5.10;99.90;;;;;;5005485;28;20026;-68
2022/01/24 10:29:09;;;;;;;12.45;11.15;;;5.10;99.90;;;;;;5004320;28;20172;-68
2022/01/24 10:31:45;;;;;;;15.07;12.88;;;5.10;99.90;;;;;;5006846;28;20026;-68
2022/01/24 10:34:23;;;;;;;14.25;12.63;;;5.20;99.90;;;;;;5004285;28;20119;-68
2022/01/24 10:36:49;;;;;;;13.65;10.65;;;5.40;99.90;;;;;;5003318;28;20089;-68
2022/01/24 10:42:31;;;;;;;12.60;10.45;;;5.70;99.90;;;;;;5003583;28;20038;-68
2022/01/24 10:45:01;;;;;;;12.68;11.30;;;5.90;99.90;;;;;;5004914;28;20096;-69
2022/01/24 10:47:32;;;;;;;9.13;7.72;;;6.00;99.90;;;;;;5005107;28;20406;-68
2022/01/24 10:50:01;;;;;;;8.88;7.68;;;5.90;99.90;;;;;;5005794;28;20063;-68
2022/01/24 10:52:29;;;;;;;12.77;8.10;;;5.90;99.90;;;;;;5004774;28;20497;-68
2022/01/24 10:55:15;;;;;;;8.75;7.90;;;5.80;99.90;;;;;;5004841;28;20030;-63
2022/01/24 10:57:43;;;;;;;10.30;4.95;;;5.80;99.90;;;;;;4991708;28;20113;-68
2022/01/24 11:00:11;;;;;;;6.43;5.22;;;5.80;99.90;;;;;;5008863;28;20116;-68
2022/01/24 11:02:40;;;;;;;5.47;4.90;;;5.90;99.90;;;;;;5010711;28;20069;-68
2022/01/24 11:05:13;;;;;;;4.90;4.40;;;5.80;99.90;;;;;;5008066;28;20033;-69
2022/01/24 11:07:57;;;;;;;4.50;4.07;;;5.80;99.90;;;;;;5010124;28;20130;-69
2022/01/24 11:10:28;;;;;;;4.13;3.17;;;5.80;99.90;;;;;;5010650;28;20512;-69
2022/01/24 11:12:54;;;;;;;4.82;3.83;;;5.90;99.90;;;;;;5009444;28;20038;-68
2022/01/24 11:15:24;;;;;;;3.22;2.40;;;5.90;99.90;;;;;;5009322;28;20026;-69
2022/01/24 11:17:52;;;;;;;4.85;3.00;;;5.80;99.90;;;;;;5009240;28;20044;-69
2022/01/24 11:20:20;;;;;;;3.42;2.40;;;5.70;99.90;;;;;;5009784;28;20033;-68
2022/01/24 11:22:54;;;;;;;3.33;2.28;;;5.60;99.90;;;;;;5009785;28;20033;-68
2022/01/24 11:25:20;;;;;;;2.83;1.90;;;5.40;99.90;;;;;;5009436;28;20030;-68
2022/01/24 11:27:47;;;;;;;2.80;1.85;;;5.40;99.90;;;;;;5009857;28;20066;-68
2022/01/24 11:30:16;;;;;;;2.35;2.15;;;5.40;99.90;;;;;;5009445;28;20022;-68
2022/01/24 11:32:54;;;;;;;2.83;2.63;;;5.30;99.90;;;;;;5010239;28;20026;-68
2022/01/24 11:35:44;;;;;;;3.08;2.10;;;5.30;99.90;;;;;;5007520;28;20035;-68
2022/01/24 11:38:37;;;;;;;1.88;1.60;;;5.30;99.90;;;;;;5007140;28;20038;-68
2022/01/24 11:41:13;;;;;;;3.30;1.88;;;5.30;99.90;;;;;;5009601;28;20040;-69
2022/01/24 11:43:46;;;;;;;2.83;1.80;;;5.30;99.90;;;;;;5009143;28;20030;-69
2022/01/24 11:46:43;;;;;;;2.63;1.85;;;5.30;99.90;;;;;;4965088;28;20092;-69
2022/01/24 11:49:13;;;;;;;2.85;2.33;;;5.30;99.90;;;;;;5007234;28;20375;-69
2022/01/24 11:51:40;;;;;;;3.63;2.47;;;5.30;99.90;;;;;;4936783;28;21028;-69
2022/01/24 11:54:31;;;;;;;3.38;2.47;;;5.30;99.90;;;;;;4912694;28;20038;-69
2022/01/24 11:57:17;;;;;;;3.53;3.20;;;5.30;99.90;;;;;;4907492;28;20160;-69
2022/01/24 11:59:44;;;;;;;2.55;1.83;;;5.30;99.90;;;;;;4950379;28;21382;-68
2022/01/24 12:02:13;;;;;;;2.33;2.10;;;5.30;99.90;;;;;;5007766;28;20703;-68
2022/01/24 12:04:59;;;;;;;4.60;2.15;;;5.30;99.90;;;;;;5007179;28;20034;-69
2022/01/24 12:07:28;;;;;;;3.03;2.03;;;5.20;99.90;;;;;;5024094;28;20034;-69
2022/01/24 12:09:55;;;;;;;3.38;2.83;;;5.10;99.90;;;;;;5009122;28;20030;-68
2022/01/24 12:12:44;;;;;;;2.47;1.90;;;5.10;99.90;;;;;;4974418;28;20036;-69
2022/01/24 12:15:30;;;;;;;2.38;2.03;;;5.10;99.90;;;;;;4998151;28;20050;-69
2022/01/24 12:17:57;;;;;;;2.00;1.70;;;5.10;99.90;;;;;;5007965;28;20869;-68
2022/01/24 12:20:33;;;;;;;3.17;1.90;;;5.00;99.90;;;;;;5007935;28;20041;-68
2022/01/24 12:23:20;;;;;;;2.20;2.00;;;5.10;99.90;;;;;;5007565;28;20115;-69
2022/01/24 12:25:54;;;;;;;3.55;1.73;;;5.10;99.90;;;;;;4981773;28;20121;-68
2022/01/24 12:28:24;;;;;;;3.22;1.60;;;5.20;99.90;;;;;;5007626;28;20037;-68
2022/01/24 12:31:03;;;;;;;2.28;1.77;;;5.30;99.90;;;;;;5008688;28;20030;-68
2022/01/24 12:33:39;;;;;;;2.22;1.70;;;5.40;99.90;;;;;;5007155;28;20100;-68
2022/01/24 12:36:15;;;;;;;2.88;1.77;;;5.40;99.90;;;;;;4994977;28;20629;-68
2022/01/24 12:38:51;;;;;;;1.60;1.50;;;5.40;99.90;;;;;;5008314;28;20064;-68
2022/01/24 12:41:39;;;;;;;2.95;1.67;;;5.40;99.90;;;;;;5005910;28;20130;-67
2022/01/24 12:46:32;;;;;;;2.00;1.55;;;5.40;99.90;;;;;;5008519;28;20022;-68
2022/01/24 12:49:00;;;;;;;3.15;2.45;;;5.40;99.90;;;;;;5008404;28;20440;-68
2022/01/24 12:51:28;;;;;;;1.85;1.50;;;5.30;99.90;;;;;;5008700;28;20034;-69
2022/01/24 12:53:55;;;;;;;1.33;1.23;;;5.20;99.90;;;;;;5006334;28;20080;-68
2022/01/24 12:56:26;;;;;;;2.47;1.30;;;5.10;99.90;;;;;;5007342;28;20037;-68
2022/01/24 12:58:52;;;;;;;1.63;1.15;;;5.10;99.90;;;;;;5008552;28;20039;-68
2022/01/24 13:01:27;;;;;;;2.10;1.20;;;5.10;99.90;;;;;;5006515;28;20030;-69
2022/01/24 13:04:08;;;;;;;1.40;1.30;;;5.00;99.90;;;;;;5006304;28;20037;-68
2022/01/24 13:06:37;;;;;;;1.20;1.10;;;5.00;99.90;;;;;;5005003;28;20049;-68
2022/01/24 13:09:25;;;;;;;1.88;1.40;;;5.00;99.90;;;;;;5008862;28;20614;-68
2022/01/24 13:11:56;;;;;;;1.55;1.10;;;5.00;99.90;;;;;;5007352;28;20414;-68
2022/01/24 13:14:47;;;;;;;3.00;1.20;;;4.90;99.90;;;;;;5007535;28;20183;-68
2022/01/24 13:25:22;;;;;;;1.23;1.08;;;4.80;99.90;;;;;;5007937;28;20062;-69
2022/01/24 13:27:51;;;;;;;1.90;1.60;;;4.70;99.90;;;;;;5008510;28;20389;-68
2022/01/24 13:30:45;;;;;;;2.40;1.02;;;4.70;99.90;;;;;;5007636;28;20040;-68
2022/01/24 13:33:25;;;;;;;3.03;1.02;;;4.70;99.90;;;;;;5007342;28;20038;-68
2022/01/24 13:35:51;;;;;;;1.98;1.02;;;4.70;99.90;;;;;;5005476;28;20041;-68
2022/01/24 13:38:24;;;;;;;0.93;0.90;;;4.70;99.90;;;;;;5007131;28;20033;-68
2022/01/24 13:41:03;;;;;;;2.30;1.20;;;4.70;99.90;;;;;;5007721;28;20037;-68
2022/01/24 13:43:47;;;;;;;2.60;1.40;;;4.60;99.90;;;;;;5007812;28;20373;-68
2022/01/24 13:46:19;;;;;;;1.38;1.27;;;4.70;99.90;;;;;;5006673;28;20029;-68
2022/01/24 13:49:12;;;;;;;1.75;1.50;;;4.60;99.90;;;;;;5006813;28;20053;-68
2022/01/24 13:51:43;;;;;;;2.63;1.50;;;4.70;99.90;;;;;;5007353;28;20712;-68
2022/01/24 13:54:11;;;;;;;2.05;1.90;;;4.70;99.90;;;;;;5008661;28;20389;-69
2022/01/24 13:56:54;;;;;;;2.20;2.00;;;4.60;99.90;;;;;;5007343;28;20041;-69
2022/01/24 13:59:28;;;;;;;2.35;2.15;;;4.60;99.90;;;;;;5005652;28;20041;-68
2022/01/24 14:02:13;;;;;;;2.72;2.53;;;4.60;99.90;;;;;;5007221;28;20026;-68
2022/01/24 14:04:46;;;;;;;2.40;2.20;;;4.60;99.90;;;;;;5008264;28;20100;-68
2022/01/24 14:07:21;;;;;;;3.13;2.70;;;4.60;99.90;;;;;;5006769;28;20033;-68
2022/01/24 14:09:50;;;;;;;2.47;2.13;;;4.60;99.90;;;;;;5005900;28;20037;-68
2022/01/24 14:12:18;;;;;;;2.42;2.22;;;4.60;99.90;;;;;;5007971;28;20109;-69
2022/01/24 14:14:55;;;;;;;2.80;2.60;;;4.60;99.90;;;;;;5005980;28;20026;-69
2022/01/24 14:20:14;;;;;;;;;;;4.50;99.90;;;;;;5008279;28;20041;-69
2022/01/24 14:22:41;;;;;;;5.53;2.85;;;4.50;99.90;;;;;;5006004;28;20443;-68
2022/01/24 14:25:22;;;;;;;3.22;2.92;;;4.50;99.90;;;;;;5006783;28;20067;-68
2022/01/24 14:27:51;;;;;;;3.08;2.88;;;4.50;99.90;;;;;;5007171;28;20393;-68
2022/01/24 14:30:21;;;;;;;3.67;3.38;;;4.40;99.90;;;;;;5008112;28;20050;-68
2022/01/24 14:33:19;;;;;;;3.58;3.28;;;4.40;99.90;;;;;;5009541;28;20037;-68
2022/01/24 14:35:57;;;;;;;3.47;3.17;;;4.40;99.90;;;;;;5000966;28;20030;-68
2022/01/24 14:39:00;;;;;;;3.80;3.50;;;4.40;99.90;;;;;;5008552;28;20088;-68
2022/01/24 14:41:35;;;;;;;4.05;3.72;;;4.40;99.90;;;;;;5011452;28;20030;-68
2022/01/24 14:46:47;;;;;;;5.28;4.82;;;4.30;99.90;;;;;;5011466;28;20543;-68
2022/01/24 14:49:25;;;;;;;4.15;3.75;;;4.30;99.90;;;;;;5009116;28;20062;-69
2022/01/24 14:51:54;;;;;;;6.78;4.57;;;4.30;99.90;;;;;;5012303;28;20049;-69
2022/01/24 14:54:22;;;;;;;4.95;4.40;;;4.30;99.90;;;;;;5009478;28;20018;-69
2022/01/24 14:56:51;;;;;;;5.18;4.68;;;4.30;99.90;;;;;;5011610;28;20398;-68
2022/01/24 14:59:18;;;;;;;5.70;5.20;;;4.30;99.90;;;;;;5011157;28;20037;-68
2022/01/24 15:01:45;;;;;;;7.13;4.45;;;4.30;99.90;;;;;;5010800;28;20033;-68
2022/01/24 15:04:11;;;;;;;5.88;5.38;;;4.30;99.90;;;;;;5011603;28;20036;-68
2022/01/24 15:06:37;;;;;;;6.30;5.80;;;4.30;99.90;;;;;;5010729;28;20033;-68
2022/01/24 15:09:26;;;;;;;6.28;5.38;;;4.30;99.90;;;;;;5011885;28;20029;-68